createdAt,value
2018-06-15T00:00:44.091Z,8.47
2018-06-15T00:03:11.980Z,9.57
2018-06-15T00:05:39.774Z,7.47
2018-06-15T00:08:07.595Z,8.60
2018-06-15T00:10:35.424Z,8.57
2018-06-15T00:13:03.210Z,8.30
2018-06-15T00:15:31.018Z,9.90
2018-06-15T00:17:58.821Z,8.63
2018-06-15T00:20:26.626Z,8.57
2018-06-15T00:22:54.398Z,7.80
2018-06-15T00:25:22.210Z,8.17
2018-06-15T00:27:49.998Z,8.13
2018-06-15T00:30:17.799Z,8.67
2018-06-15T00:32:45.580Z,8.50
2018-06-15T00:35:13.386Z,9.33
2018-06-15T00:37:41.199Z,8.47
2018-06-15T00:40:09.007Z,9.47
2018-06-15T00:42:36.794Z,9.20
2018-06-15T00:45:04.590Z,8.47
2018-06-15T00:47:32.367Z,8.97
2018-06-15T00:50:00.179Z,8.80
2018-06-15T00:52:27.962Z,8.97
2018-06-15T00:54:55.781Z,7.63
2018-06-15T00:57:29.285Z,7.53
2018-06-15T00:59:57.082Z,9.00
2018-06-15T01:02:24.878Z,8.30
2018-06-15T01:04:52.685Z,8.57
2018-06-15T01:07:20.462Z,8.00
2018-06-15T01:09:48.265Z,7.97
2018-06-15T01:12:16.057Z,8.60
2018-06-15T01:14:43.855Z,8.00
2018-06-15T01:17:11.640Z,8.10
2018-06-15T01:19:39.442Z,8.40
2018-06-15T01:22:07.222Z,8.07
2018-06-15T01:24:35.019Z,7.67
2018-06-15T01:27:02.805Z,8.00
2018-06-15T01:29:30.606Z,7.80
2018-06-15T01:31:58.401Z,8.60
2018-06-15T01:34:26.200Z,7.87
2018-06-15T01:36:54.026Z,8.40
2018-06-15T01:39:21.816Z,8.63
2018-06-15T01:41:49.619Z,8.43
2018-06-15T01:44:17.399Z,7.13
2018-06-15T01:46:45.204Z,8.00
2018-06-15T01:49:12.982Z,6.63
2018-06-15T01:51:40.780Z,9.60
2018-06-15T01:54:08.572Z,8.37
2018-06-15T01:56:36.374Z,7.90
2018-06-15T01:59:04.150Z,7.80
2018-06-15T02:01:31.949Z,8.00
2018-06-15T02:03:59.729Z,7.47
2018-06-15T02:06:27.522Z,7.50
2018-06-15T02:08:55.307Z,7.23
2018-06-15T02:11:23.524Z,7.87
2018-06-15T02:13:51.309Z,7.87
2018-06-15T02:16:19.116Z,6.50
2018-06-15T02:18:46.896Z,6.80
2018-06-15T02:21:14.699Z,7.37
2018-06-15T02:23:42.495Z,7.60
2018-06-15T02:26:10.294Z,6.37
2018-06-15T02:28:38.071Z,5.73
2018-06-15T02:31:06.027Z,6.47
2018-06-15T02:33:33.807Z,6.67
2018-06-15T02:36:01.635Z,6.37
2018-06-15T02:38:29.430Z,6.27
2018-06-15T02:40:57.242Z,6.17
2018-06-15T02:43:25.019Z,5.90
2018-06-15T02:45:52.828Z,6.30
2018-06-15T02:48:20.602Z,6.17
2018-06-15T02:50:48.414Z,6.47
2018-06-15T02:53:16.201Z,6.27
2018-06-15T02:55:44.032Z,6.47
2018-06-15T02:58:11.814Z,5.97
2018-06-15T03:00:39.619Z,5.93
2018-06-15T03:03:07.407Z,6.07
2018-06-15T03:05:35.232Z,6.83
2018-06-15T03:08:03.050Z,6.40
2018-06-15T03:10:30.859Z,6.43
2018-06-15T03:12:58.649Z,7.43
2018-06-15T03:15:26.547Z,6.27
2018-06-15T03:17:54.374Z,6.77
2018-06-15T03:20:22.153Z,6.00
2018-06-15T03:22:49.978Z,6.60
2018-06-15T03:25:17.762Z,6.13
2018-06-15T03:27:45.566Z,6.73
2018-06-15T03:30:13.358Z,6.70
2018-06-15T03:32:41.154Z,6.47
2018-06-15T03:35:08.941Z,6.40
2018-06-15T03:37:36.779Z,5.90
2018-06-15T03:40:04.694Z,7.00
2018-06-15T03:42:32.499Z,5.97
2018-06-15T03:45:00.326Z,6.83
2018-06-15T03:47:28.126Z,6.23
2018-06-15T03:49:55.940Z,6.60
2018-06-15T03:52:23.743Z,6.83
2018-06-15T03:54:51.525Z,6.90
2018-06-15T03:57:19.326Z,6.67
2018-06-15T03:59:47.113Z,7.23
2018-06-15T04:02:14.923Z,6.43
2018-06-15T04:04:42.702Z,6.83
2018-06-15T04:07:10.509Z,6.80
2018-06-15T04:09:38.300Z,7.47
2018-06-15T04:12:06.124Z,7.33
2018-06-15T04:14:33.947Z,7.07
2018-06-15T04:17:01.799Z,7.30
2018-06-15T04:19:29.577Z,7.30
2018-06-15T04:21:57.431Z,7.90
2018-06-15T04:24:25.273Z,8.30
2018-06-15T04:26:53.159Z,8.10
2018-06-15T04:29:20.939Z,7.23
2018-06-15T04:31:48.767Z,6.97
2018-06-15T04:34:16.536Z,7.00
2018-06-15T04:36:44.364Z,7.97
2018-06-15T04:39:12.142Z,7.30
2018-06-15T04:41:39.951Z,7.30
2018-06-15T04:44:08.026Z,7.50
2018-06-15T04:46:35.840Z,7.60
2018-06-15T04:49:03.643Z,7.90
2018-06-15T04:51:31.450Z,7.60
2018-06-15T04:53:59.272Z,7.40
2018-06-15T04:56:27.120Z,7.20
2018-06-15T04:58:54.930Z,6.70
2018-06-15T05:01:22.715Z,7.63
2018-06-15T05:03:53.012Z,7.73
2018-06-15T05:06:21.001Z,7.10
2018-06-15T05:08:48.794Z,7.83
2018-06-15T05:11:16.582Z,7.87
2018-06-15T05:13:44.707Z,7.77
2018-06-15T05:16:18.348Z,6.93
2018-06-15T05:18:46.147Z,7.40
2018-06-15T05:21:14.031Z,8.60
2018-06-15T05:23:41.830Z,8.33
2018-06-15T05:26:09.641Z,7.83
2018-06-15T05:28:37.459Z,8.13
2018-06-15T05:31:05.257Z,8.00
2018-06-15T05:33:33.052Z,8.30
2018-06-15T05:36:01.072Z,7.33
2018-06-15T05:38:28.872Z,7.70
2018-06-15T05:40:56.806Z,7.53
2018-06-15T05:43:24.594Z,8.20
2018-06-15T05:45:52.382Z,7.90
2018-06-15T05:48:20.212Z,8.00
2018-06-15T05:50:48.038Z,8.13
2018-06-15T05:53:15.821Z,8.03
2018-06-15T05:55:43.641Z,8.37
2018-06-15T05:58:11.427Z,8.30
2018-06-15T06:00:39.207Z,8.50
2018-06-15T06:03:07.043Z,8.10
2018-06-15T06:05:34.920Z,8.70
2018-06-15T06:08:02.783Z,8.57
2018-06-15T06:10:30.686Z,9.00
2018-06-15T06:12:58.473Z,8.77
2018-06-15T06:15:26.288Z,8.63
2018-06-15T06:17:54.103Z,8.03
2018-06-15T06:20:21.942Z,8.90
2018-06-15T06:22:49.759Z,8.60
2018-06-15T06:25:17.580Z,8.53
2018-06-15T06:27:45.390Z,7.30
2018-06-15T06:30:13.182Z,8.00
2018-06-15T06:32:41.039Z,8.43
2018-06-15T06:35:08.823Z,8.23
2018-06-15T06:37:36.637Z,8.17
2018-06-15T06:40:04.458Z,7.53
2018-06-15T06:42:32.239Z,7.40
2018-06-15T06:45:00.024Z,7.90
2018-06-15T06:47:27.847Z,8.00
2018-06-15T06:49:55.622Z,6.87
2018-06-15T06:52:23.448Z,7.43
2018-06-15T06:54:51.285Z,7.00
2018-06-15T06:57:19.118Z,7.93
2018-06-15T06:59:46.928Z,7.33
2018-06-15T07:02:14.719Z,7.97
2018-06-15T07:04:42.530Z,8.17
2018-06-15T07:07:10.334Z,8.40
2018-06-15T07:09:38.143Z,7.20
2018-06-15T07:12:05.927Z,8.37
2018-06-15T07:14:33.752Z,8.13
2018-06-15T07:17:01.550Z,7.50
2018-06-15T07:19:29.344Z,7.50
2018-06-15T07:21:57.153Z,7.80
2018-06-15T07:24:24.950Z,8.17
2018-06-15T07:26:52.756Z,6.73
2018-06-15T07:29:20.534Z,7.00
2018-06-15T07:31:48.344Z,7.20
2018-06-15T07:34:16.131Z,7.23
2018-06-15T07:36:43.952Z,6.90
2018-06-15T07:39:12.295Z,6.93
2018-06-15T07:41:40.118Z,7.10
2018-06-15T07:44:08.154Z,7.13
2018-06-15T07:46:36.075Z,6.50
2018-06-15T07:49:03.892Z,7.33
2018-06-15T07:51:31.679Z,7.20
2018-06-15T07:53:59.556Z,8.20
2018-06-15T07:56:27.378Z,7.30
2018-06-15T07:58:55.179Z,8.77
2018-06-15T08:01:22.987Z,7.00
2018-06-15T08:03:56.188Z,7.53
2018-06-15T08:06:23.990Z,8.33
2018-06-15T08:08:51.785Z,8.00
2018-06-15T08:11:19.601Z,7.80
2018-06-15T08:13:47.378Z,6.40
2018-06-15T08:16:15.197Z,6.70
2018-06-15T08:18:42.979Z,7.07
2018-06-15T08:21:10.758Z,6.60
2018-06-15T08:23:38.566Z,6.90
2018-06-15T08:26:06.351Z,6.63
2018-06-15T08:28:34.162Z,6.10
2018-06-15T08:31:01.981Z,6.27
2018-06-15T08:33:29.804Z,7.40
2018-06-15T08:35:57.611Z,6.40
2018-06-15T08:38:25.400Z,6.97
2018-06-15T08:40:53.246Z,6.90
2018-06-15T08:43:21.038Z,5.90
2018-06-15T08:45:49.740Z,7.10
2018-06-15T08:48:17.626Z,6.70
2018-06-15T08:50:45.824Z,6.67
2018-06-15T08:53:13.838Z,6.23
2018-06-15T08:55:41.622Z,7.43
2018-06-15T08:58:09.882Z,7.00
2018-06-15T09:00:43.397Z,6.23
2018-06-15T09:03:11.183Z,6.23
2018-06-15T09:05:38.987Z,7.10
2018-06-15T09:08:07.782Z,7.00
2018-06-15T09:10:35.639Z,7.20
2018-06-15T09:13:03.594Z,6.93
2018-06-15T09:15:31.486Z,7.50
2018-06-15T09:17:59.324Z,7.83
2018-06-15T09:20:27.128Z,6.63
2018-06-15T09:22:54.923Z,7.37
2018-06-15T09:25:22.739Z,7.50
2018-06-15T09:27:50.535Z,7.23
2018-06-15T09:30:18.348Z,7.77
2018-06-15T09:32:46.134Z,8.10
2018-06-15T09:35:13.947Z,7.93
2018-06-15T09:37:41.926Z,6.77
2018-06-15T09:40:09.735Z,6.90
2018-06-15T09:42:42.005Z,5.67
2018-06-15T09:45:11.418Z,5.90
2018-06-15T09:47:39.321Z,5.97
2018-06-15T09:50:07.141Z,5.67
2018-06-15T09:52:34.974Z,5.80
2018-06-15T09:55:02.762Z,5.67
2018-06-15T09:57:30.556Z,5.17
2018-06-15T09:59:58.475Z,4.70
2018-06-15T10:02:26.288Z,4.77
2018-06-15T10:04:54.094Z,5.00
2018-06-15T10:07:21.900Z,4.63
2018-06-15T10:09:49.702Z,4.17
2018-06-15T10:12:17.564Z,4.10
2018-06-15T10:14:46.071Z,4.40
2018-06-15T10:17:13.923Z,3.90
2018-06-15T10:19:41.755Z,4.30
2018-06-15T10:22:09.539Z,4.23
2018-06-15T10:24:37.326Z,4.13
2018-06-15T10:27:06.376Z,4.03
2018-06-15T10:29:34.247Z,3.73
2018-06-15T10:32:06.019Z,4.13
2018-06-15T10:34:35.551Z,3.20
2018-06-15T10:37:03.334Z,3.53
2018-06-15T10:39:32.070Z,3.83
2018-06-15T10:42:02.064Z,3.20
2018-06-15T10:44:33.028Z,3.43
2018-06-15T10:47:01.282Z,3.10
2018-06-15T10:49:33.134Z,3.37
2018-06-15T10:52:05.471Z,2.73
2018-06-15T10:54:35.751Z,3.00
2018-06-15T10:57:03.587Z,3.37
2018-06-15T10:59:33.769Z,2.80
2018-06-15T11:02:03.620Z,3.00
2018-06-15T11:04:33.138Z,3.40
2018-06-15T11:07:01.019Z,3.33
2018-06-15T11:09:28.807Z,3.03
2018-06-15T11:11:56.618Z,3.27
2018-06-15T11:14:24.410Z,2.70
2018-06-15T11:16:52.349Z,2.93
2018-06-15T11:19:20.143Z,3.37
2018-06-15T11:21:47.951Z,3.00
2018-06-15T11:24:15.836Z,3.50
2018-06-15T11:26:43.655Z,3.30
2018-06-15T11:29:11.473Z,3.60
2018-06-15T11:31:39.280Z,2.60
2018-06-15T11:34:07.078Z,3.27
2018-06-15T11:36:34.900Z,3.00
2018-06-15T11:39:02.752Z,3.50
2018-06-15T11:41:30.554Z,3.10
2018-06-15T11:43:58.348Z,3.53
2018-06-15T11:46:26.159Z,3.40
2018-06-15T11:48:53.970Z,3.23
2018-06-15T11:51:21.784Z,3.30
2018-06-15T11:53:49.607Z,2.93
2018-06-15T11:56:17.400Z,2.90
2018-06-15T11:58:45.214Z,2.97
2018-06-15T12:01:13.040Z,3.43
2018-06-15T12:03:40.859Z,3.43
2018-06-15T12:06:08.634Z,3.60
2018-06-15T12:08:36.452Z,3.83
2018-06-15T12:11:04.246Z,2.80
2018-06-15T12:13:32.060Z,3.50
2018-06-15T12:15:59.882Z,3.23
2018-06-15T12:18:27.733Z,3.00
2018-06-15T12:20:55.895Z,3.50
2018-06-15T12:23:23.710Z,3.37
2018-06-15T12:25:51.534Z,3.20
2018-06-15T12:28:19.357Z,3.10
2018-06-15T12:30:47.142Z,3.33
2018-06-15T12:33:14.963Z,3.00
2018-06-15T12:35:42.744Z,3.47
2018-06-15T12:38:10.531Z,3.10
2018-06-15T12:40:38.337Z,3.40
2018-06-15T12:43:06.131Z,3.47
2018-06-15T12:45:33.951Z,3.90
2018-06-15T12:48:01.743Z,3.17
2018-06-15T12:50:29.535Z,3.23
2018-06-15T12:52:57.356Z,3.30
2018-06-15T12:55:25.167Z,3.17
2018-06-15T12:57:53.790Z,3.10
2018-06-15T13:00:21.586Z,3.67
2018-06-15T13:02:49.406Z,3.40
2018-06-15T13:05:17.199Z,3.10
2018-06-15T13:07:44.983Z,3.47
2018-06-15T13:10:12.799Z,2.90
2018-06-15T13:12:40.579Z,3.30
2018-06-15T13:15:08.404Z,3.23
2018-06-15T13:17:36.190Z,3.03
2018-06-15T13:20:04.021Z,2.90
2018-06-15T13:22:31.803Z,3.40
2018-06-15T13:24:59.615Z,3.70
2018-06-15T13:27:27.987Z,2.90
2018-06-15T13:29:55.811Z,3.33
2018-06-15T13:32:23.630Z,3.50
2018-06-15T13:34:51.463Z,3.13
2018-06-15T13:37:19.249Z,3.67
2018-06-15T13:39:47.062Z,2.90
2018-06-15T13:42:14.870Z,3.30
2018-06-15T13:44:42.706Z,3.10
2018-06-15T13:47:10.500Z,3.40
2018-06-15T13:49:39.019Z,3.73
2018-06-15T13:52:07.305Z,3.13
2018-06-15T13:54:35.115Z,3.00
2018-06-15T13:57:03.139Z,3.00
2018-06-15T13:59:31.103Z,3.10
2018-06-15T14:01:58.903Z,2.90
2018-06-15T14:04:26.861Z,3.43
2018-06-15T14:06:54.707Z,2.90
2018-06-15T14:09:22.490Z,2.90
2018-06-15T14:11:50.288Z,2.70
2018-06-15T14:14:18.105Z,3.33
2018-06-15T14:16:45.918Z,3.10
2018-06-15T14:19:13.726Z,2.90
2018-06-15T14:21:41.543Z,3.03
2018-06-15T14:24:09.364Z,3.07
2018-06-15T14:26:37.488Z,3.17
2018-06-15T14:29:05.303Z,3.47
2018-06-15T14:31:33.103Z,2.73
2018-06-15T14:34:01.148Z,3.20
2018-06-15T14:36:29.024Z,3.10
2018-06-15T14:38:56.800Z,3.40
2018-06-15T14:41:24.670Z,2.77
2018-06-15T14:43:53.282Z,2.63
2018-06-15T14:46:21.141Z,3.30
2018-06-15T14:48:48.991Z,3.27
2018-06-15T14:51:16.794Z,2.60
2018-06-15T14:53:44.610Z,2.53
2018-06-15T14:56:13.313Z,3.00
2018-06-15T14:58:41.883Z,3.00
2018-06-15T15:01:09.906Z,2.57
2018-06-15T15:03:37.683Z,2.90
2018-06-15T15:06:05.509Z,2.83
2018-06-15T15:08:33.409Z,2.70
2018-06-15T15:11:01.169Z,3.33
2018-06-15T15:13:28.999Z,2.60
2018-06-15T15:15:56.820Z,2.77
2018-06-15T15:18:24.605Z,3.20
2018-06-15T15:20:52.483Z,2.50
2018-06-15T15:23:20.270Z,3.10
2018-06-15T15:25:48.333Z,2.40
2018-06-15T15:28:16.717Z,3.40
2018-06-15T15:30:44.523Z,3.00
2018-06-15T15:33:12.840Z,2.40
2018-06-15T15:35:42.055Z,2.67
2018-06-15T15:38:16.694Z,2.90
2018-06-15T15:40:44.508Z,3.17
2018-06-15T15:43:12.306Z,2.80
2018-06-15T15:45:40.327Z,3.03
2018-06-15T15:48:08.135Z,3.03
2018-06-15T15:50:36.476Z,3.00
2018-06-15T15:53:04.747Z,2.77
2018-06-15T15:55:33.394Z,3.20
2018-06-15T15:58:01.184Z,3.60
2018-06-15T16:00:29.049Z,3.13
2018-06-15T16:02:56.888Z,3.17
2018-06-15T16:05:24.694Z,2.90
2018-06-15T16:07:52.485Z,3.17
2018-06-15T16:10:20.298Z,2.77
2018-06-15T16:12:48.958Z,3.23
2018-06-15T16:15:16.771Z,3.10
2018-06-15T16:17:44.567Z,3.20
2018-06-15T16:20:12.384Z,3.70
2018-06-15T16:22:43.579Z,3.37
2018-06-15T16:25:11.460Z,3.30
2018-06-15T16:27:39.263Z,3.63
2018-06-15T16:30:07.207Z,3.40
2018-06-15T16:32:35.122Z,3.40
2018-06-15T16:35:02.950Z,3.53
2018-06-15T16:37:30.751Z,3.20
2018-06-15T16:39:58.611Z,3.70
2018-06-15T16:42:26.475Z,3.90
2018-06-15T16:44:54.462Z,3.90
2018-06-15T16:47:22.291Z,4.40
2018-06-15T16:49:50.105Z,4.30
2018-06-15T16:52:17.895Z,6.20
2018-06-15T16:54:45.706Z,4.30
2018-06-15T16:57:13.499Z,4.07
2018-06-15T16:59:41.298Z,4.47
2018-06-15T17:02:09.103Z,4.00
2018-06-15T17:04:36.903Z,3.80
2018-06-15T17:07:04.764Z,4.93
2018-06-15T17:09:32.571Z,3.43
2018-06-15T17:12:00.391Z,3.23
2018-06-15T17:14:28.186Z,3.10
2018-06-15T17:16:55.996Z,3.20
2018-06-15T17:19:23.811Z,3.40
2018-06-15T17:21:51.612Z,3.63
2018-06-15T17:24:19.405Z,3.70
2018-06-15T17:26:47.659Z,2.40
2018-06-15T17:29:17.081Z,3.07
2018-06-15T17:31:45.181Z,3.27
2018-06-15T17:34:12.982Z,3.07
2018-06-15T17:36:43.791Z,3.20
2018-06-15T17:39:11.943Z,2.60
2018-06-15T17:41:39.754Z,3.23
2018-06-15T17:44:07.549Z,3.33
2018-06-15T17:46:35.871Z,3.77
2018-06-15T17:49:03.673Z,4.03
2018-06-15T17:51:31.477Z,4.00
2018-06-15T17:53:59.291Z,5.20
2018-06-15T17:56:27.080Z,5.63
2018-06-15T17:58:54.909Z,6.60
2018-06-15T18:01:22.737Z,5.87
2018-06-15T18:03:50.538Z,5.60
2018-06-15T18:06:18.390Z,5.57
2018-06-15T18:08:46.195Z,6.27
2018-06-15T18:11:14.038Z,5.93
2018-06-15T18:13:41.827Z,6.53
2018-06-15T18:16:09.740Z,5.67
2018-06-15T18:18:37.594Z,5.70
2018-06-15T18:21:05.585Z,5.63
2018-06-15T18:23:33.386Z,5.67
2018-06-15T18:26:02.233Z,5.30
2018-06-15T18:28:30.109Z,5.20
2018-06-15T18:30:57.927Z,4.97
2018-06-15T18:33:26.066Z,5.20
2018-06-15T18:35:54.231Z,5.60
2018-06-15T18:38:22.098Z,5.23
2018-06-15T18:40:49.916Z,4.43
2018-06-15T18:43:17.703Z,4.50
2018-06-15T18:45:45.513Z,5.00
2018-06-15T18:48:13.306Z,5.00
2018-06-15T18:50:41.111Z,5.70
2018-06-15T18:53:08.904Z,6.00
2018-06-15T18:55:36.723Z,4.80
2018-06-15T18:58:04.517Z,4.50
2018-06-15T19:00:32.312Z,5.50
2018-06-15T19:03:00.124Z,5.70
2018-06-15T19:05:27.935Z,5.37
2018-06-15T19:07:55.751Z,4.83
2018-06-15T19:10:23.550Z,5.20
2018-06-15T19:12:51.369Z,5.03
2018-06-15T19:15:19.162Z,4.87
2018-06-15T19:17:46.962Z,5.17
2018-06-15T19:20:15.127Z,4.93
2018-06-15T19:22:42.930Z,4.60
2018-06-15T19:25:10.791Z,5.10
2018-06-15T19:27:41.601Z,4.97
2018-06-15T19:30:16.570Z,5.57
2018-06-15T19:32:45.499Z,5.07
2018-06-15T19:35:13.552Z,4.93
2018-06-15T19:37:41.356Z,5.90
2018-06-15T19:40:09.174Z,6.07
2018-06-15T19:42:36.988Z,5.23
2018-06-15T19:45:04.808Z,5.50
2018-06-15T19:47:32.608Z,6.07
2018-06-15T19:50:00.493Z,5.23
2018-06-15T19:52:28.395Z,5.40
2018-06-15T19:54:56.297Z,5.70
2018-06-15T19:57:24.104Z,5.20
2018-06-15T19:59:51.983Z,5.63
2018-06-15T20:02:20.291Z,5.80
2018-06-15T20:04:48.075Z,6.23
2018-06-15T20:07:15.926Z,6.57
2018-06-15T20:09:44.142Z,6.10
2018-06-15T20:12:11.956Z,5.63
2018-06-15T20:14:39.809Z,5.97
2018-06-15T20:17:07.779Z,6.50
2018-06-15T20:19:35.830Z,6.20
2018-06-15T20:22:03.808Z,6.53
2018-06-15T20:24:31.711Z,6.80
2018-06-15T20:26:59.923Z,6.67
2018-06-15T20:29:27.714Z,5.97
2018-06-15T20:31:55.535Z,6.00
2018-06-15T20:34:23.379Z,6.40
2018-06-15T20:36:51.390Z,6.07
2018-06-15T20:39:19.254Z,6.27
2018-06-15T20:41:47.099Z,6.30
2018-06-15T20:44:14.952Z,5.90
2018-06-15T20:46:42.835Z,6.03
2018-06-15T20:49:10.741Z,6.57
2018-06-15T20:51:38.770Z,6.17
2018-06-15T20:54:07.090Z,5.87
2018-06-15T20:56:35.186Z,7.30
2018-06-15T20:59:03.022Z,6.80
2018-06-15T21:01:30.919Z,6.80
2018-06-15T21:03:59.039Z,6.97
2018-06-15T21:06:26.850Z,6.80
2018-06-15T21:08:54.689Z,7.33
2018-06-15T21:11:22.488Z,7.90
2018-06-15T21:13:50.399Z,8.03
2018-06-15T21:16:18.198Z,7.30
2018-06-15T21:18:46.089Z,7.10
2018-06-15T21:21:14.021Z,8.03
2018-06-15T21:23:41.842Z,7.70
2018-06-15T21:26:09.635Z,7.57
2018-06-15T21:28:37.534Z,7.27
2018-06-15T21:31:05.537Z,7.67
2018-06-15T21:33:33.370Z,7.10
2018-06-15T21:36:01.165Z,7.33
2018-06-15T21:38:29.095Z,6.90
2018-06-15T21:40:56.929Z,7.30
2018-06-15T21:43:24.914Z,7.30
2018-06-15T21:45:52.710Z,8.10
2018-06-15T21:48:20.564Z,7.00
2018-06-15T21:50:48.356Z,7.23
2018-06-15T21:53:16.266Z,6.67
2018-06-15T21:55:44.070Z,6.87
2018-06-15T21:58:11.894Z,6.83
2018-06-15T22:00:39.792Z,6.37
2018-06-15T22:03:07.610Z,7.37
2018-06-15T22:05:35.495Z,7.27
2018-06-15T22:08:03.316Z,6.27
2018-06-15T22:10:31.175Z,6.00
2018-06-15T22:12:58.976Z,6.83
2018-06-15T22:15:26.835Z,6.63
2018-06-15T22:17:54.753Z,7.20
2018-06-15T22:20:22.598Z,6.83
2018-06-15T22:22:50.416Z,7.20
2018-06-15T22:25:18.224Z,6.87
2018-06-15T22:27:46.048Z,6.93
2018-06-15T22:30:13.984Z,7.10
2018-06-15T22:32:41.766Z,6.77
2018-06-15T22:35:09.589Z,7.50
2018-06-15T22:37:37.387Z,7.27
2018-06-15T22:40:05.219Z,7.43
2018-06-15T22:42:33.059Z,7.80
2018-06-15T22:45:00.844Z,8.60
2018-06-15T22:47:28.667Z,6.53
2018-06-15T22:49:56.539Z,6.47
2018-06-15T22:52:24.327Z,8.70
2018-06-15T22:54:52.154Z,7.40
2018-06-15T22:57:19.995Z,7.77
2018-06-15T22:59:47.814Z,8.10
2018-06-15T23:02:15.641Z,7.60
2018-06-15T23:04:43.543Z,7.20
2018-06-15T23:07:11.344Z,7.13
2018-06-15T23:09:39.161Z,7.40
2018-06-15T23:12:06.974Z,8.17
2018-06-15T23:14:34.851Z,7.43
2018-06-15T23:17:02.602Z,7.03
2018-06-15T23:19:30.418Z,7.50
2018-06-15T23:21:58.206Z,7.53
2018-06-15T23:24:26.033Z,8.17
2018-06-15T23:26:53.898Z,7.50
2018-06-15T23:29:22.514Z,7.13
2018-06-15T23:31:50.297Z,7.90
2018-06-15T23:34:18.078Z,8.37
2018-06-15T23:36:45.923Z,7.33
2018-06-15T23:39:13.707Z,7.63
2018-06-15T23:41:41.519Z,7.43
2018-06-15T23:44:09.300Z,8.27
2018-06-15T23:46:37.098Z,8.13
2018-06-15T23:49:04.943Z,8.27
2018-06-15T23:51:32.750Z,7.90
2018-06-15T23:54:00.535Z,8.13
2018-06-15T23:56:28.353Z,8.67
2018-06-15T23:58:56.170Z,8.63
